createdAt,value
2022-12-24T00:03:43.024Z,2.03
2022-12-24T00:08:46.850Z,1.90
2022-12-24T00:13:51.871Z,1.70
2022-12-24T00:18:55.549Z,1.90
2022-12-24T00:23:59.189Z,2.03
2022-12-24T00:29:04.680Z,1.80
2022-12-24T00:34:08.698Z,1.95
2022-12-24T00:39:12.925Z,2.00
2022-12-24T00:44:18.939Z,2.08
2022-12-24T00:49:23.251Z,2.00
2022-12-24T00:54:26.825Z,2.00
2022-12-24T00:59:31.774Z,1.95
2022-12-24T01:04:52.948Z,2.00
2022-12-24T01:09:56.617Z,1.98
2022-12-24T01:15:02.624Z,1.90
2022-12-24T01:20:12.578Z,1.80
2022-12-24T01:25:16.518Z,2.03
2022-12-24T01:30:21.769Z,1.80
2022-12-24T01:35:25.300Z,1.73
2022-12-24T01:40:46.631Z,1.70
2022-12-24T01:45:54.653Z,1.90
2022-12-24T01:51:05.547Z,2.25
2022-12-24T01:56:11.292Z,1.80
2022-12-24T02:01:16.710Z,1.80
2022-12-24T02:06:22.526Z,2.00
2022-12-24T02:11:26.270Z,1.90
2022-12-24T02:16:47.326Z,1.88
2022-12-24T02:21:59.677Z,2.03
2022-12-24T02:27:22.681Z,1.83
2022-12-24T02:32:42.465Z,1.92
2022-12-24T02:37:53.757Z,1.92
2022-12-24T02:43:05.027Z,1.70
2022-12-24T02:48:12.059Z,1.88
2022-12-24T02:53:15.658Z,1.73
2022-12-24T02:58:39.323Z,1.80
2022-12-24T03:04:09.863Z,1.80
2022-12-24T03:09:25.742Z,1.90
2022-12-24T03:14:30.652Z,1.60
2022-12-24T03:19:36.820Z,1.70
2022-12-24T03:24:40.772Z,1.80
2022-12-24T03:29:44.631Z,1.58
2022-12-24T03:34:49.612Z,1.75
2022-12-24T03:39:53.177Z,1.88
2022-12-24T03:44:56.735Z,2.10
2022-12-24T03:50:01.768Z,2.15
2022-12-24T03:55:06.606Z,2.15
2022-12-24T04:00:12.652Z,2.45
2022-12-24T04:05:21.252Z,2.50
2022-12-24T04:10:24.863Z,2.67
2022-12-24T04:15:28.477Z,2.30
2022-12-24T04:20:33.397Z,2.15
2022-12-24T04:25:38.646Z,2.30
2022-12-24T04:30:43.374Z,2.53
2022-12-24T04:35:48.314Z,2.50
2022-12-24T04:41:00.867Z,2.45
2022-12-24T04:46:09.806Z,2.40
2022-12-24T04:51:17.239Z,2.65
2022-12-24T04:56:24.695Z,2.50
2022-12-24T05:01:33.628Z,2.25
2022-12-24T05:06:38.928Z,2.60
2022-12-24T05:11:42.605Z,2.20
2022-12-24T05:16:46.233Z,2.47
2022-12-24T05:22:11.222Z,2.42
2022-12-24T05:27:14.821Z,2.20
2022-12-24T05:32:18.411Z,2.47
2022-12-24T05:37:23.417Z,2.28
2022-12-24T05:42:27.017Z,2.30
2022-12-24T05:47:31.368Z,2.17
2022-12-24T05:52:36.404Z,1.90
2022-12-24T05:57:42.061Z,2.50
2022-12-24T06:02:45.948Z,2.33
2022-12-24T06:07:51.194Z,2.30
2022-12-24T06:12:54.800Z,2.38
2022-12-24T06:17:58.356Z,2.03
2022-12-24T06:23:03.422Z,2.08
2022-12-24T06:28:07.211Z,2.10
2022-12-24T06:33:10.843Z,2.33
2022-12-24T06:38:16.842Z,2.30
2022-12-24T06:43:20.408Z,2.03
2022-12-24T06:48:24.151Z,2.47
2022-12-24T06:53:29.079Z,1.98
2022-12-24T06:58:33.043Z,2.30
2022-12-24T07:03:37.154Z,1.95
2022-12-24T07:08:42.195Z,2.10
2022-12-24T07:13:46.088Z,2.10
2022-12-24T07:18:49.790Z,1.98
2022-12-24T07:23:54.736Z,1.70
2022-12-24T07:28:58.421Z,2.00
2022-12-24T07:34:01.984Z,2.17
2022-12-24T07:39:07.108Z,2.00
2022-12-24T07:44:13.624Z,2.00
2022-12-24T07:49:17.266Z,1.70
2022-12-24T07:54:22.309Z,2.13
2022-12-24T07:59:26.247Z,2.35
2022-12-24T08:04:33.677Z,1.90
2022-12-24T08:09:44.292Z,2.35
2022-12-24T08:14:48.009Z,2.33
2022-12-24T08:19:51.768Z,2.80
2022-12-24T08:24:56.849Z,2.65
2022-12-24T08:30:00.523Z,3.38
2022-12-24T08:35:05.161Z,3.05
2022-12-24T08:40:12.766Z,3.58
2022-12-24T08:45:16.635Z,3.13
2022-12-24T08:50:20.626Z,3.60
2022-12-24T08:55:25.675Z,3.08
2022-12-24T09:00:29.975Z,3.17
2022-12-24T09:05:34.009Z,2.88
2022-12-24T09:10:39.156Z,2.70
2022-12-24T09:15:43.006Z,2.80
2022-12-24T09:20:47.138Z,3.05
2022-12-24T09:25:52.884Z,2.75
2022-12-24T09:31:06.942Z,2.60
2022-12-24T09:36:11.911Z,2.65
2022-12-24T09:41:32.086Z,2.42
2022-12-24T09:46:42.407Z,2.55
2022-12-24T09:51:51.219Z,2.53
2022-12-24T09:56:59.015Z,2.70
2022-12-24T10:07:26.158Z,2.20
2022-12-24T10:12:49.156Z,2.30
2022-12-24T10:18:14.289Z,2.45
2022-12-24T10:23:26.224Z,2.30
2022-12-24T10:28:42.125Z,2.13
2022-12-24T10:33:52.756Z,2.38
2022-12-24T10:38:56.983Z,2.30
2022-12-24T10:44:02.704Z,2.58
2022-12-24T10:49:09.571Z,2.60
2022-12-24T10:54:22.564Z,2.47
2022-12-24T10:59:38.376Z,3.27
2022-12-24T11:04:51.279Z,3.00
2022-12-24T11:10:01.132Z,3.30
2022-12-24T11:15:15.967Z,4.75
2022-12-24T11:20:28.361Z,4.70
2022-12-24T11:25:34.724Z,4.57
2022-12-24T11:30:40.464Z,4.43
2022-12-24T11:35:51.726Z,4.60
2022-12-24T11:41:09.253Z,4.47
2022-12-24T11:46:24.077Z,4.15
2022-12-24T11:51:29.163Z,4.22
2022-12-24T11:56:41.841Z,4.32
2022-12-24T12:01:55.875Z,3.95
2022-12-24T12:07:14.333Z,4.30
2022-12-24T12:12:25.622Z,3.70
2022-12-24T12:17:37.411Z,3.42
2022-12-24T12:22:51.880Z,3.15
2022-12-24T12:27:58.382Z,3.53
2022-12-24T12:33:14.944Z,3.47
2022-12-24T12:38:25.494Z,3.20
2022-12-24T12:43:56.759Z,3.35
2022-12-24T12:49:22.913Z,3.25
2022-12-24T12:54:52.467Z,3.22
2022-12-24T13:00:02.416Z,2.80
2022-12-24T13:06:00.051Z,2.92
2022-12-24T13:11:41.122Z,3.17
2022-12-24T13:17:21.260Z,3.08
2022-12-24T13:22:26.603Z,2.85
2022-12-24T13:27:32.650Z,2.55
2022-12-24T13:32:52.839Z,2.83
2022-12-24T13:38:42.308Z,2.70
2022-12-24T13:44:04.782Z,2.55
2022-12-24T13:49:14.317Z,2.63
2022-12-24T13:54:25.704Z,2.60
2022-12-24T13:59:38.919Z,2.63
2022-12-24T14:04:43.031Z,2.63
2022-12-24T14:09:51.957Z,2.53
2022-12-24T14:14:55.456Z,2.45
2022-12-24T14:20:02.391Z,2.83
2022-12-24T14:25:19.992Z,2.50
2022-12-24T14:30:26.087Z,2.63
2022-12-24T14:35:36.563Z,2.63
2022-12-24T14:41:01.763Z,2.65
2022-12-24T14:46:17.278Z,2.40
2022-12-24T14:51:32.359Z,2.50
2022-12-24T14:56:37.490Z,2.50
2022-12-24T15:01:41.398Z,2.50
2022-12-24T15:06:50.540Z,2.30
2022-12-24T15:12:03.511Z,2.20
2022-12-24T15:17:09.495Z,2.22
2022-12-24T15:22:25.212Z,2.35
2022-12-24T15:27:40.487Z,2.20
2022-12-24T15:32:44.275Z,2.28
2022-12-24T15:37:48.112Z,2.50
2022-12-24T15:42:54.033Z,1.90
2022-12-24T15:48:02.071Z,2.30
2022-12-24T15:53:20.700Z,2.30
2022-12-24T15:58:31.920Z,2.00
2022-12-24T16:03:37.548Z,2.03
2022-12-24T16:08:42.578Z,1.80
2022-12-24T16:14:04.179Z,2.10
2022-12-24T16:19:18.092Z,1.85
2022-12-24T16:24:26.371Z,1.83
2022-12-24T16:29:31.720Z,1.85
2022-12-24T16:34:35.580Z,1.90
2022-12-24T16:39:39.252Z,1.90
2022-12-24T16:44:45.814Z,2.05
2022-12-24T16:49:49.816Z,1.70
2022-12-24T16:54:54.043Z,1.83
2022-12-24T16:59:59.750Z,1.90
2022-12-24T17:05:03.302Z,1.73
2022-12-24T17:10:11.629Z,1.70
2022-12-24T17:15:16.666Z,1.80
2022-12-24T17:20:24.324Z,1.85
2022-12-24T17:25:28.337Z,1.75
2022-12-24T17:30:33.490Z,1.75
2022-12-24T17:35:41.604Z,1.77
2022-12-24T17:40:45.581Z,1.90
2022-12-24T17:45:50.728Z,1.70
2022-12-24T17:50:54.413Z,1.70
2022-12-24T17:55:58.183Z,1.80
2022-12-24T18:01:03.353Z,1.90
2022-12-24T18:06:10.695Z,1.58
2022-12-24T18:11:17.201Z,1.80
2022-12-24T18:16:28.025Z,1.40
2022-12-24T18:21:34.231Z,1.45
2022-12-24T18:26:38.004Z,1.50
2022-12-24T18:31:43.581Z,1.70
2022-12-24T18:36:54.621Z,1.40
2022-12-24T18:41:58.922Z,1.50
2022-12-24T18:47:04.276Z,1.30
2022-12-24T18:52:10.450Z,1.52
2022-12-24T18:57:14.517Z,1.40
2022-12-24T19:02:19.819Z,1.67
2022-12-24T19:07:23.627Z,1.70
2022-12-24T19:12:27.291Z,1.30
2022-12-24T19:17:32.475Z,1.38
2022-12-24T19:22:36.370Z,1.60
2022-12-24T19:27:40.085Z,1.50
2022-12-24T19:32:45.303Z,1.38
2022-12-24T19:37:48.915Z,1.70
2022-12-24T19:42:52.842Z,1.60
2022-12-24T19:47:57.976Z,1.50
2022-12-24T19:53:02.143Z,1.70
2022-12-24T19:58:05.949Z,1.58
2022-12-24T20:03:11.342Z,1.83
2022-12-24T20:08:15.165Z,1.63
2022-12-24T20:13:18.920Z,1.77
2022-12-24T20:18:23.995Z,1.58
2022-12-24T20:23:27.788Z,1.80
2022-12-24T20:28:35.581Z,1.73
2022-12-24T20:38:45.426Z,1.70
2022-12-24T20:43:49.854Z,1.85
2022-12-24T20:48:56.895Z,1.80
2022-12-24T20:54:02.559Z,1.90
2022-12-24T20:59:06.605Z,1.80
2022-12-24T21:04:12.717Z,1.65
2022-12-24T21:09:16.617Z,1.80
2022-12-24T21:14:26.268Z,1.60
2022-12-24T21:19:31.409Z,1.90
2022-12-24T21:24:35.200Z,1.90
2022-12-24T21:29:39.127Z,2.00
2022-12-24T21:34:44.240Z,1.70
2022-12-24T21:39:48.283Z,1.70
2022-12-24T21:44:52.133Z,1.90
2022-12-24T21:50:14.955Z,1.77
2022-12-24T21:55:18.987Z,1.80
2022-12-24T22:00:23.254Z,1.83
2022-12-24T22:05:29.557Z,1.90
2022-12-24T22:10:51.379Z,1.70
2022-12-24T22:15:56.031Z,1.83
2022-12-24T22:21:04.039Z,1.73
2022-12-24T22:26:13.067Z,1.80
2022-12-24T22:31:21.493Z,1.95
2022-12-24T22:36:26.637Z,2.10
2022-12-24T22:41:30.350Z,2.42
2022-12-24T22:46:35.575Z,2.30
2022-12-24T22:51:40.692Z,2.22
2022-12-24T22:56:44.508Z,2.40
2022-12-24T23:01:49.751Z,2.35
2022-12-24T23:06:54.907Z,2.00
2022-12-24T23:11:58.632Z,2.40
2022-12-24T23:17:02.841Z,2.10
2022-12-24T23:22:08.684Z,2.38
2022-12-24T23:27:12.870Z,2.20
2022-12-24T23:32:16.480Z,2.40
2022-12-24T23:37:21.524Z,2.65
2022-12-24T23:42:25.161Z,2.80
2022-12-24T23:47:28.804Z,2.70
2022-12-24T23:52:33.827Z,3.00
2022-12-24T23:57:37.426Z,2.80
